<?xml version="1.0" encoding="UTF-8" standalone="no" ?>
<gpx xmlns="http://www.topografix.com/GPX/1/1" xmlns:xsi="http://www.w3.org/2001/XMLSchema-instance" xsi:schemaLocation="http://www.topografix.com/GPX/1/1 http://www.topografix.com/GPX/1/1/gpx.xsd" version="1.1" creator="VisuGPX - https://www.visugpx.com">
  <metadata>
    <name>Cossesseville_MoulinPapierBriseVieille_20km</name>
    <desc><![CDATA[gnerando idor:8733817]]></desc>
  </metadata>
  <trk>
    <name><![CDATA[Cossesseville_MoulinPapierBrisevieille_20km-8733817]]></name>
    <extensions>
      <line xmlns="http://www.topografix.com/GPX/gpx_style/0/2">
        <color>0000FF</color>
        <width>4</width>
      </line>
    </extensions>
    <trkseg>
      <trkpt lat="48.89349" lon="-0.41908">
        <ele>121</ele>
        <time>2023-11-01T14:46:11Z</time>
      </trkpt>
      <trkpt lat="48.89335" lon="-0.41927">
        <ele>121</ele>
        <time>2023-11-01T14:46:36Z</time>
      </trkpt>
      <trkpt lat="48.89306" lon="-0.42061">
        <ele>119</ele>
        <time>2023-11-01T14:48:40Z</time>
      </trkpt>
      <trkpt lat="48.89283" lon="-0.42139">
        <ele>122</ele>
        <time>2023-11-01T14:49:55Z</time>
      </trkpt>
      <trkpt lat="48.89271" lon="-0.42192">
        <ele>124</ele>
        <time>2023-11-01T14:50:44Z</time>
      </trkpt>
      <trkpt lat="48.89269" lon="-0.42221">
        <ele>126</ele>
        <time>2023-11-01T14:51:10Z</time>
      </trkpt>
      <trkpt lat="48.89244" lon="-0.42326">
        <ele>130</ele>
        <time>2023-11-01T14:52:48Z</time>
      </trkpt>
      <trkpt lat="48.89234" lon="-0.4238">
        <ele>129</ele>
        <time>2023-11-01T14:53:37Z</time>
      </trkpt>
      <trkpt lat="48.89226" lon="-0.42407">
        <ele>129</ele>
        <time>2023-11-01T14:54:03Z</time>
      </trkpt>
      <trkpt lat="48.89218" lon="-0.42462">
        <ele>127</ele>
        <time>2023-11-01T14:54:52Z</time>
      </trkpt>
      <trkpt lat="48.89196" lon="-0.42543">
        <ele>124</ele>
        <time>2023-11-01T14:56:09Z</time>
      </trkpt>
      <trkpt lat="48.89186" lon="-0.42597">
        <ele>123</ele>
        <time>2023-11-01T14:56:58Z</time>
      </trkpt>
      <trkpt lat="48.89138" lon="-0.42781">
        <ele>114</ele>
        <time>2023-11-01T14:59:52Z</time>
      </trkpt>
      <trkpt lat="48.8912" lon="-0.42863">
        <ele>111</ele>
        <time>2023-11-01T15:01:08Z</time>
      </trkpt>
      <trkpt lat="48.89137" lon="-0.42877">
        <ele>109</ele>
        <time>2023-11-01T15:01:34Z</time>
      </trkpt>
      <trkpt lat="48.89224" lon="-0.42926">
        <ele>98</ele>
        <time>2023-11-01T15:03:37Z</time>
      </trkpt>
      <trkpt lat="48.8926" lon="-0.42941">
        <ele>94</ele>
        <time>2023-11-01T15:04:27Z</time>
      </trkpt>
      <trkpt lat="48.89311" lon="-0.42974">
        <ele>90</ele>
        <time>2023-11-01T15:05:41Z</time>
      </trkpt>
      <trkpt lat="48.89347" lon="-0.42993">
        <ele>88</ele>
        <time>2023-11-01T15:06:32Z</time>
      </trkpt>
      <trkpt lat="48.89365" lon="-0.43">
        <ele>88</ele>
        <time>2023-11-01T15:06:57Z</time>
      </trkpt>
      <trkpt lat="48.89417" lon="-0.4303">
        <ele>86</ele>
        <time>2023-11-01T15:08:11Z</time>
      </trkpt>
      <trkpt lat="48.89435" lon="-0.43033">
        <ele>86</ele>
        <time>2023-11-01T15:08:35Z</time>
      </trkpt>
      <trkpt lat="48.89447" lon="-0.4301">
        <ele>87</ele>
        <time>2023-11-01T15:09:01Z</time>
      </trkpt>
      <trkpt lat="48.89452" lon="-0.42981">
        <ele>88</ele>
        <time>2023-11-01T15:09:27Z</time>
      </trkpt>
      <trkpt lat="48.89469" lon="-0.4297">
        <ele>89</ele>
        <time>2023-11-01T15:09:52Z</time>
      </trkpt>
      <trkpt lat="48.89486" lon="-0.42983">
        <ele>89</ele>
        <time>2023-11-01T15:10:17Z</time>
      </trkpt>
      <trkpt lat="48.89498" lon="-0.43004">
        <ele>89</ele>
        <time>2023-11-01T15:10:42Z</time>
      </trkpt>
      <trkpt lat="48.89522" lon="-0.4308">
        <ele>84</ele>
        <time>2023-11-01T15:11:56Z</time>
      </trkpt>
      <trkpt lat="48.89527" lon="-0.43108">
        <ele>82</ele>
        <time>2023-11-01T15:12:21Z</time>
      </trkpt>
      <trkpt lat="48.89542" lon="-0.43126">
        <ele>80</ele>
        <time>2023-11-01T15:12:47Z</time>
      </trkpt>
      <trkpt lat="48.89559" lon="-0.43137">
        <ele>79</ele>
        <time>2023-11-01T15:13:11Z</time>
      </trkpt>
      <trkpt lat="48.89596" lon="-0.43129">
        <ele>80</ele>
        <time>2023-11-01T15:14:01Z</time>
      </trkpt>
      <trkpt lat="48.89614" lon="-0.43132">
        <ele>80</ele>
        <time>2023-11-01T15:14:25Z</time>
      </trkpt>
      <trkpt lat="48.89651" lon="-0.43119">
        <ele>82</ele>
        <time>2023-11-01T15:15:16Z</time>
      </trkpt>
      <trkpt lat="48.89662" lon="-0.43095">
        <ele>82</ele>
        <time>2023-11-01T15:15:42Z</time>
      </trkpt>
      <trkpt lat="48.8968" lon="-0.43088">
        <ele>84</ele>
        <time>2023-11-01T15:16:06Z</time>
      </trkpt>
      <trkpt lat="48.89715" lon="-0.43098">
        <ele>88</ele>
        <time>2023-11-01T15:16:54Z</time>
      </trkpt>
      <trkpt lat="48.89734" lon="-0.431">
        <ele>90</ele>
        <time>2023-11-01T15:17:19Z</time>
      </trkpt>
      <trkpt lat="48.8974" lon="-0.43126">
        <ele>91</ele>
        <time>2023-11-01T15:17:44Z</time>
      </trkpt>
      <trkpt lat="48.89704" lon="-0.43257">
        <ele>89</ele>
        <time>2023-11-01T15:19:48Z</time>
      </trkpt>
      <trkpt lat="48.89687" lon="-0.43305">
        <ele>88</ele>
        <time>2023-11-01T15:20:36Z</time>
      </trkpt>
      <trkpt lat="48.89676" lon="-0.43327">
        <ele>88</ele>
        <time>2023-11-01T15:21:00Z</time>
      </trkpt>
      <trkpt lat="48.89668" lon="-0.43353">
        <ele>87</ele>
        <time>2023-11-01T15:21:25Z</time>
      </trkpt>
      <trkpt lat="48.8966" lon="-0.43409">
        <ele>85</ele>
        <time>2023-11-01T15:22:16Z</time>
      </trkpt>
      <trkpt lat="48.89624" lon="-0.43536">
        <ele>85</ele>
        <time>2023-11-01T15:24:17Z</time>
      </trkpt>
      <trkpt lat="48.89611" lon="-0.43589">
        <ele>87</ele>
        <time>2023-11-01T15:25:07Z</time>
      </trkpt>
      <trkpt lat="48.89607" lon="-0.43616">
        <ele>88</ele>
        <time>2023-11-01T15:25:31Z</time>
      </trkpt>
      <trkpt lat="48.89577" lon="-0.4372">
        <ele>84</ele>
        <time>2023-11-01T15:27:11Z</time>
      </trkpt>
      <trkpt lat="48.89557" lon="-0.43799">
        <ele>74</ele>
        <time>2023-11-01T15:28:25Z</time>
      </trkpt>
      <trkpt lat="48.89558" lon="-0.43827">
        <ele>70</ele>
        <time>2023-11-01T15:28:49Z</time>
      </trkpt>
      <trkpt lat="48.8957" lon="-0.43881">
        <ele>64</ele>
        <time>2023-11-01T15:29:39Z</time>
      </trkpt>
      <trkpt lat="48.89589" lon="-0.4399">
        <ele>52</ele>
        <time>2023-11-01T15:31:18Z</time>
      </trkpt>
      <trkpt lat="48.89599" lon="-0.44014">
        <ele>51</ele>
        <time>2023-11-01T15:31:43Z</time>
      </trkpt>
      <trkpt lat="48.89612" lon="-0.44035">
        <ele>51</ele>
        <time>2023-11-01T15:32:09Z</time>
      </trkpt>
      <trkpt lat="48.89657" lon="-0.44089">
        <ele>51</ele>
        <time>2023-11-01T15:33:25Z</time>
      </trkpt>
      <trkpt lat="48.89697" lon="-0.44151">
        <ele>54</ele>
        <time>2023-11-01T15:34:41Z</time>
      </trkpt>
      <trkpt lat="48.89707" lon="-0.44174">
        <ele>54</ele>
        <time>2023-11-01T15:35:06Z</time>
      </trkpt>
      <trkpt lat="48.8972" lon="-0.44227">
        <ele>52</ele>
        <time>2023-11-01T15:35:55Z</time>
      </trkpt>
      <trkpt lat="48.8973" lon="-0.4425">
        <ele>52</ele>
        <time>2023-11-01T15:36:19Z</time>
      </trkpt>
      <trkpt lat="48.89735" lon="-0.44278">
        <ele>53</ele>
        <time>2023-11-01T15:36:45Z</time>
      </trkpt>
      <trkpt lat="48.89729" lon="-0.44333">
        <ele>54</ele>
        <time>2023-11-01T15:37:34Z</time>
      </trkpt>
      <trkpt lat="48.89722" lon="-0.44359">
        <ele>53</ele>
        <time>2023-11-01T15:37:58Z</time>
      </trkpt>
      <trkpt lat="48.8971" lon="-0.44444">
        <ele>53</ele>
        <time>2023-11-01T15:39:15Z</time>
      </trkpt>
      <trkpt lat="48.89704" lon="-0.4447">
        <ele>53</ele>
        <time>2023-11-01T15:39:39Z</time>
      </trkpt>
      <trkpt lat="48.89694" lon="-0.44553">
        <ele>52</ele>
        <time>2023-11-01T15:40:53Z</time>
      </trkpt>
      <trkpt lat="48.89677" lon="-0.44635">
        <ele>49</ele>
        <time>2023-11-01T15:42:08Z</time>
      </trkpt>
      <trkpt lat="48.89694" lon="-0.44646">
        <ele>53</ele>
        <time>2023-11-01T15:42:33Z</time>
      </trkpt>
      <trkpt lat="48.89749" lon="-0.44657">
        <ele>64</ele>
        <time>2023-11-01T15:43:47Z</time>
      </trkpt>
      <trkpt lat="48.89768" lon="-0.44664">
        <ele>67</ele>
        <time>2023-11-01T15:44:13Z</time>
      </trkpt>
      <trkpt lat="48.89771" lon="-0.44692">
        <ele>69</ele>
        <time>2023-11-01T15:44:38Z</time>
      </trkpt>
      <trkpt lat="48.89737" lon="-0.44716">
        <ele>67</ele>
        <time>2023-11-01T15:45:28Z</time>
      </trkpt>
      <trkpt lat="48.89718" lon="-0.44721">
        <ele>64</ele>
        <time>2023-11-01T15:45:54Z</time>
      </trkpt>
      <trkpt lat="48.897" lon="-0.4473">
        <ele>62</ele>
        <time>2023-11-01T15:46:19Z</time>
      </trkpt>
      <trkpt lat="48.89687" lon="-0.44749">
        <ele>62</ele>
        <time>2023-11-01T15:46:43Z</time>
      </trkpt>
      <trkpt lat="48.89692" lon="-0.44777">
        <ele>65</ele>
        <time>2023-11-01T15:47:08Z</time>
      </trkpt>
      <trkpt lat="48.89702" lon="-0.44801">
        <ele>68</ele>
        <time>2023-11-01T15:47:33Z</time>
      </trkpt>
      <trkpt lat="48.89707" lon="-0.44828">
        <ele>70</ele>
        <time>2023-11-01T15:47:58Z</time>
      </trkpt>
      <trkpt lat="48.89709" lon="-0.44857">
        <ele>71</ele>
        <time>2023-11-01T15:48:24Z</time>
      </trkpt>
      <trkpt lat="48.89717" lon="-0.44882">
        <ele>72</ele>
        <time>2023-11-01T15:48:48Z</time>
      </trkpt>
      <trkpt lat="48.89752" lon="-0.44902">
        <ele>75</ele>
        <time>2023-11-01T15:49:38Z</time>
      </trkpt>
      <trkpt lat="48.89761" lon="-0.44929">
        <ele>75</ele>
        <time>2023-11-01T15:50:04Z</time>
      </trkpt>
      <trkpt lat="48.89768" lon="-0.44955">
        <ele>75</ele>
        <time>2023-11-01T15:50:29Z</time>
      </trkpt>
      <trkpt lat="48.89789" lon="-0.45065">
        <ele>73</ele>
        <time>2023-11-01T15:52:10Z</time>
      </trkpt>
      <trkpt lat="48.89789" lon="-0.45094">
        <ele>72</ele>
        <time>2023-11-01T15:52:35Z</time>
      </trkpt>
      <trkpt lat="48.89776" lon="-0.45149">
        <ele>71</ele>
        <time>2023-11-01T15:53:26Z</time>
      </trkpt>
      <trkpt lat="48.89774" lon="-0.45177">
        <ele>70</ele>
        <time>2023-11-01T15:53:51Z</time>
      </trkpt>
      <trkpt lat="48.89777" lon="-0.45206">
        <ele>70</ele>
        <time>2023-11-01T15:54:17Z</time>
      </trkpt>
      <trkpt lat="48.89773" lon="-0.45262">
        <ele>69</ele>
        <time>2023-11-01T15:55:06Z</time>
      </trkpt>
      <trkpt lat="48.89791" lon="-0.45264">
        <ele>69</ele>
        <time>2023-11-01T15:55:30Z</time>
      </trkpt>
      <trkpt lat="48.89809" lon="-0.45253">
        <ele>71</ele>
        <time>2023-11-01T15:55:56Z</time>
      </trkpt>
      <trkpt lat="48.89827" lon="-0.45253">
        <ele>72</ele>
        <time>2023-11-01T15:56:20Z</time>
      </trkpt>
      <trkpt lat="48.89845" lon="-0.45257">
        <ele>72</ele>
        <time>2023-11-01T15:56:44Z</time>
      </trkpt>
      <trkpt lat="48.89863" lon="-0.45256">
        <ele>73</ele>
        <time>2023-11-01T15:57:08Z</time>
      </trkpt>
      <trkpt lat="48.899" lon="-0.45259">
        <ele>76</ele>
        <time>2023-11-01T15:57:58Z</time>
      </trkpt>
      <trkpt lat="48.89918" lon="-0.45253">
        <ele>77</ele>
        <time>2023-11-01T15:58:22Z</time>
      </trkpt>
      <trkpt lat="48.89955" lon="-0.45247">
        <ele>78</ele>
        <time>2023-11-01T15:59:12Z</time>
      </trkpt>
      <trkpt lat="48.89972" lon="-0.45239">
        <ele>79</ele>
        <time>2023-11-01T15:59:36Z</time>
      </trkpt>
      <trkpt lat="48.89987" lon="-0.45222">
        <ele>81</ele>
        <time>2023-11-01T16:00:01Z</time>
      </trkpt>
      <trkpt lat="48.90003" lon="-0.45209">
        <ele>82</ele>
        <time>2023-11-01T16:00:25Z</time>
      </trkpt>
      <trkpt lat="48.90022" lon="-0.45207">
        <ele>82</ele>
        <time>2023-11-01T16:00:50Z</time>
      </trkpt>
      <trkpt lat="48.9004" lon="-0.45212">
        <ele>82</ele>
        <time>2023-11-01T16:01:15Z</time>
      </trkpt>
      <trkpt lat="48.90078" lon="-0.45208">
        <ele>83</ele>
        <time>2023-11-01T16:02:06Z</time>
      </trkpt>
      <trkpt lat="48.90153" lon="-0.45216">
        <ele>81</ele>
        <time>2023-11-01T16:03:46Z</time>
      </trkpt>
      <trkpt lat="48.90185" lon="-0.4519">
        <ele>84</ele>
        <time>2023-11-01T16:04:34Z</time>
      </trkpt>
      <trkpt lat="48.90238" lon="-0.45159">
        <ele>86</ele>
        <time>2023-11-01T16:05:50Z</time>
      </trkpt>
      <trkpt lat="48.90272" lon="-0.45134">
        <ele>87</ele>
        <time>2023-11-01T16:06:41Z</time>
      </trkpt>
      <trkpt lat="48.90287" lon="-0.45118">
        <ele>87</ele>
        <time>2023-11-01T16:07:05Z</time>
      </trkpt>
      <trkpt lat="48.90313" lon="-0.45078">
        <ele>89</ele>
        <time>2023-11-01T16:07:54Z</time>
      </trkpt>
      <trkpt lat="48.90321" lon="-0.45053">
        <ele>91</ele>
        <time>2023-11-01T16:08:19Z</time>
      </trkpt>
      <trkpt lat="48.90336" lon="-0.45034">
        <ele>92</ele>
        <time>2023-11-01T16:08:45Z</time>
      </trkpt>
      <trkpt lat="48.90353" lon="-0.45024">
        <ele>95</ele>
        <time>2023-11-01T16:09:09Z</time>
      </trkpt>
      <trkpt lat="48.90368" lon="-0.45039">
        <ele>95</ele>
        <time>2023-11-01T16:09:33Z</time>
      </trkpt>
      <trkpt lat="48.90378" lon="-0.45063">
        <ele>95</ele>
        <time>2023-11-01T16:09:58Z</time>
      </trkpt>
      <trkpt lat="48.90395" lon="-0.45051">
        <ele>97</ele>
        <time>2023-11-01T16:10:23Z</time>
      </trkpt>
      <trkpt lat="48.90409" lon="-0.45033">
        <ele>99</ele>
        <time>2023-11-01T16:10:48Z</time>
      </trkpt>
      <trkpt lat="48.90426" lon="-0.45024">
        <ele>101</ele>
        <time>2023-11-01T16:11:12Z</time>
      </trkpt>
      <trkpt lat="48.90445" lon="-0.45022">
        <ele>103</ele>
        <time>2023-11-01T16:11:37Z</time>
      </trkpt>
      <trkpt lat="48.90463" lon="-0.45024">
        <ele>104</ele>
        <time>2023-11-01T16:12:01Z</time>
      </trkpt>
      <trkpt lat="48.90482" lon="-0.45028">
        <ele>106</ele>
        <time>2023-11-01T16:12:27Z</time>
      </trkpt>
      <trkpt lat="48.905" lon="-0.45035">
        <ele>107</ele>
        <time>2023-11-01T16:12:51Z</time>
      </trkpt>
      <trkpt lat="48.90556" lon="-0.45045">
        <ele>111</ele>
        <time>2023-11-01T16:14:07Z</time>
      </trkpt>
      <trkpt lat="48.90593" lon="-0.45043">
        <ele>115</ele>
        <time>2023-11-01T16:14:56Z</time>
      </trkpt>
      <trkpt lat="48.9063" lon="-0.45045">
        <ele>119</ele>
        <time>2023-11-01T16:15:46Z</time>
      </trkpt>
      <trkpt lat="48.90648" lon="-0.45041">
        <ele>121</ele>
        <time>2023-11-01T16:16:10Z</time>
      </trkpt>
      <trkpt lat="48.90705" lon="-0.45038">
        <ele>129</ele>
        <time>2023-11-01T16:17:26Z</time>
      </trkpt>
      <trkpt lat="48.90723" lon="-0.45033">
        <ele>131</ele>
        <time>2023-11-01T16:17:50Z</time>
      </trkpt>
      <trkpt lat="48.90761" lon="-0.45033">
        <ele>137</ele>
        <time>2023-11-01T16:18:41Z</time>
      </trkpt>
      <trkpt lat="48.9078" lon="-0.45037">
        <ele>139</ele>
        <time>2023-11-01T16:19:07Z</time>
      </trkpt>
      <trkpt lat="48.90797" lon="-0.45045">
        <ele>141</ele>
        <time>2023-11-01T16:19:30Z</time>
      </trkpt>
      <trkpt lat="48.90831" lon="-0.45071">
        <ele>142</ele>
        <time>2023-11-01T16:20:21Z</time>
      </trkpt>
      <trkpt lat="48.90861" lon="-0.45102">
        <ele>140</ele>
        <time>2023-11-01T16:21:10Z</time>
      </trkpt>
      <trkpt lat="48.90878" lon="-0.45113">
        <ele>141</ele>
        <time>2023-11-01T16:21:34Z</time>
      </trkpt>
      <trkpt lat="48.90896" lon="-0.45116">
        <ele>144</ele>
        <time>2023-11-01T16:21:58Z</time>
      </trkpt>
      <trkpt lat="48.90932" lon="-0.45104">
        <ele>148</ele>
        <time>2023-11-01T16:22:48Z</time>
      </trkpt>
      <trkpt lat="48.90948" lon="-0.4509">
        <ele>148</ele>
        <time>2023-11-01T16:23:12Z</time>
      </trkpt>
      <trkpt lat="48.9095" lon="-0.45063">
        <ele>149</ele>
        <time>2023-11-01T16:23:36Z</time>
      </trkpt>
      <trkpt lat="48.90931" lon="-0.45061">
        <ele>151</ele>
        <time>2023-11-01T16:24:01Z</time>
      </trkpt>
      <trkpt lat="48.90916" lon="-0.45042">
        <ele>154</ele>
        <time>2023-11-01T16:24:27Z</time>
      </trkpt>
      <trkpt lat="48.909" lon="-0.44993">
        <ele>158</ele>
        <time>2023-11-01T16:25:15Z</time>
      </trkpt>
      <trkpt lat="48.90853" lon="-0.44874">
        <ele>171</ele>
        <time>2023-11-01T16:27:17Z</time>
      </trkpt>
      <trkpt lat="48.90843" lon="-0.4482">
        <ele>178</ele>
        <time>2023-11-01T16:28:06Z</time>
      </trkpt>
      <trkpt lat="48.90822" lon="-0.44775">
        <ele>182</ele>
        <time>2023-11-01T16:28:55Z</time>
      </trkpt>
      <trkpt lat="48.90809" lon="-0.44756">
        <ele>183</ele>
        <time>2023-11-01T16:29:19Z</time>
      </trkpt>
      <trkpt lat="48.90787" lon="-0.44678">
        <ele>186</ele>
        <time>2023-11-01T16:30:33Z</time>
      </trkpt>
      <trkpt lat="48.90769" lon="-0.44628">
        <ele>188</ele>
        <time>2023-11-01T16:31:23Z</time>
      </trkpt>
      <trkpt lat="48.90757" lon="-0.44608">
        <ele>189</ele>
        <time>2023-11-01T16:31:47Z</time>
      </trkpt>
      <trkpt lat="48.90755" lon="-0.4458">
        <ele>191</ele>
        <time>2023-11-01T16:32:12Z</time>
      </trkpt>
      <trkpt lat="48.90748" lon="-0.44553">
        <ele>192</ele>
        <time>2023-11-01T16:32:37Z</time>
      </trkpt>
      <trkpt lat="48.90747" lon="-0.44497">
        <ele>194</ele>
        <time>2023-11-01T16:33:26Z</time>
      </trkpt>
      <trkpt lat="48.90741" lon="-0.4447">
        <ele>193</ele>
        <time>2023-11-01T16:33:51Z</time>
      </trkpt>
      <trkpt lat="48.9073" lon="-0.44448">
        <ele>193</ele>
        <time>2023-11-01T16:34:16Z</time>
      </trkpt>
      <trkpt lat="48.90716" lon="-0.44431">
        <ele>191</ele>
        <time>2023-11-01T16:34:40Z</time>
      </trkpt>
      <trkpt lat="48.90711" lon="-0.44404">
        <ele>192</ele>
        <time>2023-11-01T16:35:04Z</time>
      </trkpt>
      <trkpt lat="48.90711" lon="-0.44376">
        <ele>194</ele>
        <time>2023-11-01T16:35:29Z</time>
      </trkpt>
      <trkpt lat="48.90701" lon="-0.44323">
        <ele>197</ele>
        <time>2023-11-01T16:36:17Z</time>
      </trkpt>
      <trkpt lat="48.90705" lon="-0.44268">
        <ele>200</ele>
        <time>2023-11-01T16:37:06Z</time>
      </trkpt>
      <trkpt lat="48.90703" lon="-0.4424">
        <ele>201</ele>
        <time>2023-11-01T16:37:30Z</time>
      </trkpt>
      <trkpt lat="48.90712" lon="-0.44216">
        <ele>203</ele>
        <time>2023-11-01T16:37:55Z</time>
      </trkpt>
      <trkpt lat="48.90744" lon="-0.44188">
        <ele>209</ele>
        <time>2023-11-01T16:38:44Z</time>
      </trkpt>
      <trkpt lat="48.90761" lon="-0.44177">
        <ele>210</ele>
        <time>2023-11-01T16:39:08Z</time>
      </trkpt>
      <trkpt lat="48.90779" lon="-0.4418">
        <ele>210</ele>
        <time>2023-11-01T16:39:33Z</time>
      </trkpt>
      <trkpt lat="48.90817" lon="-0.44172">
        <ele>211</ele>
        <time>2023-11-01T16:40:24Z</time>
      </trkpt>
      <trkpt lat="48.90833" lon="-0.44159">
        <ele>211</ele>
        <time>2023-11-01T16:40:48Z</time>
      </trkpt>
      <trkpt lat="48.90848" lon="-0.44174">
        <ele>208</ele>
        <time>2023-11-01T16:41:12Z</time>
      </trkpt>
      <trkpt lat="48.90864" lon="-0.44224">
        <ele>204</ele>
        <time>2023-11-01T16:42:01Z</time>
      </trkpt>
      <trkpt lat="48.90923" lon="-0.44293">
        <ele>197</ele>
        <time>2023-11-01T16:43:40Z</time>
      </trkpt>
      <trkpt lat="48.90932" lon="-0.44317">
        <ele>194</ele>
        <time>2023-11-01T16:44:04Z</time>
      </trkpt>
      <trkpt lat="48.90941" lon="-0.44375">
        <ele>188</ele>
        <time>2023-11-01T16:44:57Z</time>
      </trkpt>
      <trkpt lat="48.9094" lon="-0.44403">
        <ele>186</ele>
        <time>2023-11-01T16:45:21Z</time>
      </trkpt>
      <trkpt lat="48.90951" lon="-0.44486">
        <ele>177</ele>
        <time>2023-11-01T16:46:35Z</time>
      </trkpt>
      <trkpt lat="48.90967" lon="-0.44501">
        <ele>175</ele>
        <time>2023-11-01T16:47:00Z</time>
      </trkpt>
      <trkpt lat="48.91003" lon="-0.44483">
        <ele>174</ele>
        <time>2023-11-01T16:47:51Z</time>
      </trkpt>
      <trkpt lat="48.91018" lon="-0.44464">
        <ele>174</ele>
        <time>2023-11-01T16:48:17Z</time>
      </trkpt>
      <trkpt lat="48.91002" lon="-0.44383">
        <ele>180</ele>
        <time>2023-11-01T16:49:31Z</time>
      </trkpt>
      <trkpt lat="48.90989" lon="-0.443">
        <ele>184</ele>
        <time>2023-11-01T16:50:46Z</time>
      </trkpt>
      <trkpt lat="48.90986" lon="-0.44273">
        <ele>184</ele>
        <time>2023-11-01T16:51:10Z</time>
      </trkpt>
      <trkpt lat="48.90987" lon="-0.44245">
        <ele>184</ele>
        <time>2023-11-01T16:51:35Z</time>
      </trkpt>
      <trkpt lat="48.90983" lon="-0.44188">
        <ele>182</ele>
        <time>2023-11-01T16:52:25Z</time>
      </trkpt>
      <trkpt lat="48.90979" lon="-0.44161">
        <ele>181</ele>
        <time>2023-11-01T16:52:49Z</time>
      </trkpt>
      <trkpt lat="48.9098" lon="-0.44134">
        <ele>179</ele>
        <time>2023-11-01T16:53:13Z</time>
      </trkpt>
      <trkpt lat="48.91015" lon="-0.44154">
        <ele>177</ele>
        <time>2023-11-01T16:54:03Z</time>
      </trkpt>
      <trkpt lat="48.91033" lon="-0.4416">
        <ele>178</ele>
        <time>2023-11-01T16:54:27Z</time>
      </trkpt>
      <trkpt lat="48.91051" lon="-0.44161">
        <ele>179</ele>
        <time>2023-11-01T16:54:52Z</time>
      </trkpt>
      <trkpt lat="48.91089" lon="-0.44157">
        <ele>181</ele>
        <time>2023-11-01T16:55:42Z</time>
      </trkpt>
      <trkpt lat="48.91144" lon="-0.4417">
        <ele>191</ele>
        <time>2023-11-01T16:56:57Z</time>
      </trkpt>
      <trkpt lat="48.91199" lon="-0.44164">
        <ele>200</ele>
        <time>2023-11-01T16:58:10Z</time>
      </trkpt>
      <trkpt lat="48.91256" lon="-0.44151">
        <ele>207</ele>
        <time>2023-11-01T16:59:27Z</time>
      </trkpt>
      <trkpt lat="48.91274" lon="-0.44142">
        <ele>209</ele>
        <time>2023-11-01T16:59:52Z</time>
      </trkpt>
      <trkpt lat="48.91346" lon="-0.44115">
        <ele>218</ele>
        <time>2023-11-01T17:01:31Z</time>
      </trkpt>
      <trkpt lat="48.91363" lon="-0.44105">
        <ele>221</ele>
        <time>2023-11-01T17:01:56Z</time>
      </trkpt>
      <trkpt lat="48.91376" lon="-0.44086">
        <ele>223</ele>
        <time>2023-11-01T17:02:20Z</time>
      </trkpt>
      <trkpt lat="48.91438" lon="-0.44024">
        <ele>226</ele>
        <time>2023-11-01T17:03:59Z</time>
      </trkpt>
      <trkpt lat="48.91465" lon="-0.43987">
        <ele>225</ele>
        <time>2023-11-01T17:04:47Z</time>
      </trkpt>
      <trkpt lat="48.91481" lon="-0.43972">
        <ele>224</ele>
        <time>2023-11-01T17:05:12Z</time>
      </trkpt>
      <trkpt lat="48.91495" lon="-0.43953">
        <ele>223</ele>
        <time>2023-11-01T17:05:37Z</time>
      </trkpt>
      <trkpt lat="48.9151" lon="-0.43938">
        <ele>222</ele>
        <time>2023-11-01T17:06:01Z</time>
      </trkpt>
      <trkpt lat="48.91545" lon="-0.43919">
        <ele>223</ele>
        <time>2023-11-01T17:06:51Z</time>
      </trkpt>
      <trkpt lat="48.91534" lon="-0.43896">
        <ele>223</ele>
        <time>2023-11-01T17:07:16Z</time>
      </trkpt>
      <trkpt lat="48.91518" lon="-0.43885">
        <ele>222</ele>
        <time>2023-11-01T17:07:39Z</time>
      </trkpt>
      <trkpt lat="48.91499" lon="-0.43887">
        <ele>221</ele>
        <time>2023-11-01T17:08:05Z</time>
      </trkpt>
      <trkpt lat="48.91459" lon="-0.4391">
        <ele>216</ele>
        <time>2023-11-01T17:09:02Z</time>
      </trkpt>
      <trkpt lat="48.9144" lon="-0.43918">
        <ele>214</ele>
        <time>2023-11-01T17:09:28Z</time>
      </trkpt>
      <trkpt lat="48.91421" lon="-0.4392">
        <ele>213</ele>
        <time>2023-11-01T17:09:53Z</time>
      </trkpt>
      <trkpt lat="48.91402" lon="-0.43919">
        <ele>210</ele>
        <time>2023-11-01T17:10:19Z</time>
      </trkpt>
      <trkpt lat="48.91365" lon="-0.43908">
        <ele>203</ele>
        <time>2023-11-01T17:11:09Z</time>
      </trkpt>
      <trkpt lat="48.91346" lon="-0.43909">
        <ele>200</ele>
        <time>2023-11-01T17:11:35Z</time>
      </trkpt>
      <trkpt lat="48.91309" lon="-0.43899">
        <ele>195</ele>
        <time>2023-11-01T17:12:25Z</time>
      </trkpt>
      <trkpt lat="48.91291" lon="-0.43902">
        <ele>191</ele>
        <time>2023-11-01T17:12:49Z</time>
      </trkpt>
      <trkpt lat="48.91235" lon="-0.43905">
        <ele>185</ele>
        <time>2023-11-01T17:14:04Z</time>
      </trkpt>
      <trkpt lat="48.91197" lon="-0.43924">
        <ele>185</ele>
        <time>2023-11-01T17:14:57Z</time>
      </trkpt>
      <trkpt lat="48.91183" lon="-0.43943">
        <ele>185</ele>
        <time>2023-11-01T17:15:22Z</time>
      </trkpt>
      <trkpt lat="48.91168" lon="-0.43958">
        <ele>184</ele>
        <time>2023-11-01T17:15:46Z</time>
      </trkpt>
      <trkpt lat="48.9115" lon="-0.43961">
        <ele>182</ele>
        <time>2023-11-01T17:16:10Z</time>
      </trkpt>
      <trkpt lat="48.91114" lon="-0.43976">
        <ele>177</ele>
        <time>2023-11-01T17:17:00Z</time>
      </trkpt>
      <trkpt lat="48.91096" lon="-0.43977">
        <ele>174</ele>
        <time>2023-11-01T17:17:24Z</time>
      </trkpt>
      <trkpt lat="48.91059" lon="-0.43965">
        <ele>171</ele>
        <time>2023-11-01T17:18:14Z</time>
      </trkpt>
      <trkpt lat="48.91035" lon="-0.4392">
        <ele>172</ele>
        <time>2023-11-01T17:19:05Z</time>
      </trkpt>
      <trkpt lat="48.91019" lon="-0.4387">
        <ele>178</ele>
        <time>2023-11-01T17:19:54Z</time>
      </trkpt>
      <trkpt lat="48.91007" lon="-0.43848">
        <ele>180</ele>
        <time>2023-11-01T17:20:19Z</time>
      </trkpt>
      <trkpt lat="48.90992" lon="-0.43831">
        <ele>180</ele>
        <time>2023-11-01T17:20:44Z</time>
      </trkpt>
      <trkpt lat="48.90954" lon="-0.43815">
        <ele>174</ele>
        <time>2023-11-01T17:21:37Z</time>
      </trkpt>
      <trkpt lat="48.9094" lon="-0.43761">
        <ele>176</ele>
        <time>2023-11-01T17:22:28Z</time>
      </trkpt>
      <trkpt lat="48.90937" lon="-0.43734">
        <ele>177</ele>
        <time>2023-11-01T17:22:52Z</time>
      </trkpt>
      <trkpt lat="48.90946" lon="-0.43651">
        <ele>183</ele>
        <time>2023-11-01T17:24:05Z</time>
      </trkpt>
      <trkpt lat="48.90938" lon="-0.43596">
        <ele>183</ele>
        <time>2023-11-01T17:24:55Z</time>
      </trkpt>
      <trkpt lat="48.90931" lon="-0.43569">
        <ele>182</ele>
        <time>2023-11-01T17:25:20Z</time>
      </trkpt>
      <trkpt lat="48.9093" lon="-0.43542">
        <ele>183</ele>
        <time>2023-11-01T17:25:44Z</time>
      </trkpt>
      <trkpt lat="48.90921" lon="-0.43517">
        <ele>181</ele>
        <time>2023-11-01T17:26:09Z</time>
      </trkpt>
      <trkpt lat="48.90923" lon="-0.43489">
        <ele>184</ele>
        <time>2023-11-01T17:26:34Z</time>
      </trkpt>
      <trkpt lat="48.90911" lon="-0.43465">
        <ele>184</ele>
        <time>2023-11-01T17:27:00Z</time>
      </trkpt>
      <trkpt lat="48.90903" lon="-0.4344">
        <ele>185</ele>
        <time>2023-11-01T17:27:25Z</time>
      </trkpt>
      <trkpt lat="48.90873" lon="-0.43307">
        <ele>194</ele>
        <time>2023-11-01T17:29:28Z</time>
      </trkpt>
      <trkpt lat="48.9083" lon="-0.43182">
        <ele>194</ele>
        <time>2023-11-01T17:31:32Z</time>
      </trkpt>
      <trkpt lat="48.90815" lon="-0.43099">
        <ele>192</ele>
        <time>2023-11-01T17:32:47Z</time>
      </trkpt>
      <trkpt lat="48.90817" lon="-0.43071">
        <ele>191</ele>
        <time>2023-11-01T17:33:12Z</time>
      </trkpt>
      <trkpt lat="48.90802" lon="-0.42932">
        <ele>185</ele>
        <time>2023-11-01T17:35:15Z</time>
      </trkpt>
      <trkpt lat="48.90799" lon="-0.42846">
        <ele>183</ele>
        <time>2023-11-01T17:36:31Z</time>
      </trkpt>
      <trkpt lat="48.90796" lon="-0.42818">
        <ele>181</ele>
        <time>2023-11-01T17:36:56Z</time>
      </trkpt>
      <trkpt lat="48.90796" lon="-0.42789">
        <ele>180</ele>
        <time>2023-11-01T17:37:21Z</time>
      </trkpt>
      <trkpt lat="48.908" lon="-0.42761">
        <ele>179</ele>
        <time>2023-11-01T17:37:46Z</time>
      </trkpt>
      <trkpt lat="48.90801" lon="-0.42732">
        <ele>178</ele>
        <time>2023-11-01T17:38:12Z</time>
      </trkpt>
      <trkpt lat="48.90782" lon="-0.42683">
        <ele>173</ele>
        <time>2023-11-01T17:39:02Z</time>
      </trkpt>
      <trkpt lat="48.9077" lon="-0.4266">
        <ele>171</ele>
        <time>2023-11-01T17:39:27Z</time>
      </trkpt>
      <trkpt lat="48.90752" lon="-0.4261">
        <ele>169</ele>
        <time>2023-11-01T17:40:17Z</time>
      </trkpt>
      <trkpt lat="48.90739" lon="-0.42588">
        <ele>168</ele>
        <time>2023-11-01T17:40:43Z</time>
      </trkpt>
      <trkpt lat="48.9072" lon="-0.4254">
        <ele>168</ele>
        <time>2023-11-01T17:41:33Z</time>
      </trkpt>
      <trkpt lat="48.90717" lon="-0.42485">
        <ele>168</ele>
        <time>2023-11-01T17:42:21Z</time>
      </trkpt>
      <trkpt lat="48.90713" lon="-0.42457">
        <ele>168</ele>
        <time>2023-11-01T17:42:46Z</time>
      </trkpt>
      <trkpt lat="48.90672" lon="-0.42362">
        <ele>167</ele>
        <time>2023-11-01T17:44:26Z</time>
      </trkpt>
      <trkpt lat="48.90665" lon="-0.42334">
        <ele>167</ele>
        <time>2023-11-01T17:44:52Z</time>
      </trkpt>
      <trkpt lat="48.90656" lon="-0.4231">
        <ele>168</ele>
        <time>2023-11-01T17:45:16Z</time>
      </trkpt>
      <trkpt lat="48.90646" lon="-0.42226">
        <ele>169</ele>
        <time>2023-11-01T17:46:31Z</time>
      </trkpt>
      <trkpt lat="48.90656" lon="-0.4228">
        <ele>169</ele>
        <time>2023-11-01T17:47:20Z</time>
      </trkpt>
      <trkpt lat="48.90664" lon="-0.42306">
        <ele>168</ele>
        <time>2023-11-01T17:47:46Z</time>
      </trkpt>
      <trkpt lat="48.90667" lon="-0.42333">
        <ele>167</ele>
        <time>2023-11-01T17:48:10Z</time>
      </trkpt>
      <trkpt lat="48.90687" lon="-0.42382">
        <ele>167</ele>
        <time>2023-11-01T17:49:00Z</time>
      </trkpt>
      <trkpt lat="48.90713" lon="-0.42458">
        <ele>168</ele>
        <time>2023-11-01T17:50:15Z</time>
      </trkpt>
      <trkpt lat="48.90718" lon="-0.42484">
        <ele>168</ele>
        <time>2023-11-01T17:50:39Z</time>
      </trkpt>
      <trkpt lat="48.90717" lon="-0.42513">
        <ele>168</ele>
        <time>2023-11-01T17:51:05Z</time>
      </trkpt>
      <trkpt lat="48.90729" lon="-0.42566">
        <ele>168</ele>
        <time>2023-11-01T17:51:54Z</time>
      </trkpt>
      <trkpt lat="48.90722" lon="-0.4254">
        <ele>168</ele>
        <time>2023-11-01T17:52:18Z</time>
      </trkpt>
      <trkpt lat="48.90712" lon="-0.42454">
        <ele>168</ele>
        <time>2023-11-01T17:53:35Z</time>
      </trkpt>
      <trkpt lat="48.90666" lon="-0.42329">
        <ele>167</ele>
        <time>2023-11-01T17:55:41Z</time>
      </trkpt>
      <trkpt lat="48.90659" lon="-0.42303">
        <ele>168</ele>
        <time>2023-11-01T17:56:05Z</time>
      </trkpt>
      <trkpt lat="48.90645" lon="-0.42221">
        <ele>169</ele>
        <time>2023-11-01T17:57:20Z</time>
      </trkpt>
      <trkpt lat="48.90629" lon="-0.42209">
        <ele>169</ele>
        <time>2023-11-01T17:57:43Z</time>
      </trkpt>
      <trkpt lat="48.9061" lon="-0.42209">
        <ele>170</ele>
        <time>2023-11-01T17:58:09Z</time>
      </trkpt>
      <trkpt lat="48.90592" lon="-0.42213">
        <ele>171</ele>
        <time>2023-11-01T17:58:33Z</time>
      </trkpt>
      <trkpt lat="48.90573" lon="-0.42214">
        <ele>172</ele>
        <time>2023-11-01T17:58:58Z</time>
      </trkpt>
      <trkpt lat="48.90518" lon="-0.42226">
        <ele>179</ele>
        <time>2023-11-01T18:00:13Z</time>
      </trkpt>
      <trkpt lat="48.905" lon="-0.42221">
        <ele>180</ele>
        <time>2023-11-01T18:00:37Z</time>
      </trkpt>
      <trkpt lat="48.90489" lon="-0.42166">
        <ele>173</ele>
        <time>2023-11-01T18:01:27Z</time>
      </trkpt>
      <trkpt lat="48.90483" lon="-0.42111">
        <ele>168</ele>
        <time>2023-11-01T18:02:16Z</time>
      </trkpt>
      <trkpt lat="48.90477" lon="-0.42085">
        <ele>166</ele>
        <time>2023-11-01T18:02:40Z</time>
      </trkpt>
      <trkpt lat="48.90475" lon="-0.42029">
        <ele>162</ele>
        <time>2023-11-01T18:03:30Z</time>
      </trkpt>
      <trkpt lat="48.90478" lon="-0.42001">
        <ele>160</ele>
        <time>2023-11-01T18:03:55Z</time>
      </trkpt>
      <trkpt lat="48.90477" lon="-0.41971">
        <ele>158</ele>
        <time>2023-11-01T18:04:21Z</time>
      </trkpt>
      <trkpt lat="48.90482" lon="-0.41913">
        <ele>154</ele>
        <time>2023-11-01T18:05:12Z</time>
      </trkpt>
      <trkpt lat="48.90488" lon="-0.41886">
        <ele>151</ele>
        <time>2023-11-01T18:05:37Z</time>
      </trkpt>
      <trkpt lat="48.90483" lon="-0.41859">
        <ele>148</ele>
        <time>2023-11-01T18:06:02Z</time>
      </trkpt>
      <trkpt lat="48.90469" lon="-0.4184">
        <ele>145</ele>
        <time>2023-11-01T18:06:27Z</time>
      </trkpt>
      <trkpt lat="48.9045" lon="-0.41835">
        <ele>144</ele>
        <time>2023-11-01T18:06:53Z</time>
      </trkpt>
      <trkpt lat="48.90432" lon="-0.41827">
        <ele>143</ele>
        <time>2023-11-01T18:07:18Z</time>
      </trkpt>
      <trkpt lat="48.90418" lon="-0.4181">
        <ele>142</ele>
        <time>2023-11-01T18:07:42Z</time>
      </trkpt>
      <trkpt lat="48.904" lon="-0.41808">
        <ele>144</ele>
        <time>2023-11-01T18:08:06Z</time>
      </trkpt>
      <trkpt lat="48.90396" lon="-0.4178">
        <ele>145</ele>
        <time>2023-11-01T18:08:31Z</time>
      </trkpt>
      <trkpt lat="48.90401" lon="-0.41753">
        <ele>144</ele>
        <time>2023-11-01T18:08:55Z</time>
      </trkpt>
      <trkpt lat="48.9041" lon="-0.41729">
        <ele>143</ele>
        <time>2023-11-01T18:09:20Z</time>
      </trkpt>
      <trkpt lat="48.90414" lon="-0.41701">
        <ele>144</ele>
        <time>2023-11-01T18:09:45Z</time>
      </trkpt>
      <trkpt lat="48.90414" lon="-0.41672">
        <ele>145</ele>
        <time>2023-11-01T18:10:10Z</time>
      </trkpt>
      <trkpt lat="48.90401" lon="-0.41618">
        <ele>151</ele>
        <time>2023-11-01T18:11:01Z</time>
      </trkpt>
      <trkpt lat="48.90397" lon="-0.41589">
        <ele>154</ele>
        <time>2023-11-01T18:11:27Z</time>
      </trkpt>
      <trkpt lat="48.90386" lon="-0.41561">
        <ele>159</ele>
        <time>2023-11-01T18:11:55Z</time>
      </trkpt>
      <trkpt lat="48.9039" lon="-0.41534">
        <ele>158</ele>
        <time>2023-11-01T18:12:19Z</time>
      </trkpt>
      <trkpt lat="48.90369" lon="-0.41455">
        <ele>166</ele>
        <time>2023-11-01T18:13:34Z</time>
      </trkpt>
      <trkpt lat="48.90364" lon="-0.41428">
        <ele>167</ele>
        <time>2023-11-01T18:13:59Z</time>
      </trkpt>
      <trkpt lat="48.90332" lon="-0.41324">
        <ele>170</ele>
        <time>2023-11-01T18:15:40Z</time>
      </trkpt>
      <trkpt lat="48.90322" lon="-0.41302">
        <ele>174</ele>
        <time>2023-11-01T18:16:03Z</time>
      </trkpt>
      <trkpt lat="48.90321" lon="-0.41274">
        <ele>174</ele>
        <time>2023-11-01T18:16:28Z</time>
      </trkpt>
      <trkpt lat="48.9031" lon="-0.41252">
        <ele>177</ele>
        <time>2023-11-01T18:16:52Z</time>
      </trkpt>
      <trkpt lat="48.90304" lon="-0.41224">
        <ele>179</ele>
        <time>2023-11-01T18:17:18Z</time>
      </trkpt>
      <trkpt lat="48.90315" lon="-0.41202">
        <ele>176</ele>
        <time>2023-11-01T18:17:42Z</time>
      </trkpt>
      <trkpt lat="48.90346" lon="-0.4123">
        <ele>170</ele>
        <time>2023-11-01T18:18:30Z</time>
      </trkpt>
      <trkpt lat="48.90397" lon="-0.41264">
        <ele>165</ele>
        <time>2023-11-01T18:19:44Z</time>
      </trkpt>
      <trkpt lat="48.90414" lon="-0.41278">
        <ele>163</ele>
        <time>2023-11-01T18:20:10Z</time>
      </trkpt>
      <trkpt lat="48.90428" lon="-0.41295">
        <ele>161</ele>
        <time>2023-11-01T18:20:34Z</time>
      </trkpt>
      <trkpt lat="48.90447" lon="-0.41299">
        <ele>161</ele>
        <time>2023-11-01T18:21:00Z</time>
      </trkpt>
      <trkpt lat="48.90491" lon="-0.4125">
        <ele>161</ele>
        <time>2023-11-01T18:22:12Z</time>
      </trkpt>
      <trkpt lat="48.90503" lon="-0.41229">
        <ele>162</ele>
        <time>2023-11-01T18:22:37Z</time>
      </trkpt>
      <trkpt lat="48.905" lon="-0.41201">
        <ele>164</ele>
        <time>2023-11-01T18:23:02Z</time>
      </trkpt>
      <trkpt lat="48.90494" lon="-0.41174">
        <ele>166</ele>
        <time>2023-11-01T18:23:27Z</time>
      </trkpt>
      <trkpt lat="48.90375" lon="-0.40822">
        <ele>191</ele>
        <time>2023-11-01T18:29:14Z</time>
      </trkpt>
      <trkpt lat="48.90361" lon="-0.40804">
        <ele>191</ele>
        <time>2023-11-01T18:29:38Z</time>
      </trkpt>
      <trkpt lat="48.90342" lon="-0.40808">
        <ele>191</ele>
        <time>2023-11-01T18:30:04Z</time>
      </trkpt>
      <trkpt lat="48.90325" lon="-0.40816">
        <ele>191</ele>
        <time>2023-11-01T18:30:28Z</time>
      </trkpt>
      <trkpt lat="48.90288" lon="-0.40825">
        <ele>190</ele>
        <time>2023-11-01T18:31:18Z</time>
      </trkpt>
      <trkpt lat="48.90269" lon="-0.40828">
        <ele>190</ele>
        <time>2023-11-01T18:31:43Z</time>
      </trkpt>
      <trkpt lat="48.90249" lon="-0.40827">
        <ele>190</ele>
        <time>2023-11-01T18:32:10Z</time>
      </trkpt>
      <trkpt lat="48.90232" lon="-0.40819">
        <ele>190</ele>
        <time>2023-11-01T18:32:34Z</time>
      </trkpt>
      <trkpt lat="48.90214" lon="-0.40815">
        <ele>191</ele>
        <time>2023-11-01T18:32:58Z</time>
      </trkpt>
      <trkpt lat="48.90198" lon="-0.408">
        <ele>190</ele>
        <time>2023-11-01T18:33:23Z</time>
      </trkpt>
      <trkpt lat="48.90188" lon="-0.40775">
        <ele>187</ele>
        <time>2023-11-01T18:33:49Z</time>
      </trkpt>
      <trkpt lat="48.90183" lon="-0.40748">
        <ele>184</ele>
        <time>2023-11-01T18:34:13Z</time>
      </trkpt>
      <trkpt lat="48.90179" lon="-0.40664">
        <ele>172</ele>
        <time>2023-11-01T18:35:27Z</time>
      </trkpt>
      <trkpt lat="48.90174" lon="-0.40637">
        <ele>168</ele>
        <time>2023-11-01T18:35:52Z</time>
      </trkpt>
      <trkpt lat="48.90173" lon="-0.40581">
        <ele>161</ele>
        <time>2023-11-01T18:36:41Z</time>
      </trkpt>
      <trkpt lat="48.90167" lon="-0.40498">
        <ele>155</ele>
        <time>2023-11-01T18:37:54Z</time>
      </trkpt>
      <trkpt lat="48.90158" lon="-0.40414">
        <ele>154</ele>
        <time>2023-11-01T18:39:09Z</time>
      </trkpt>
      <trkpt lat="48.90149" lon="-0.4039">
        <ele>153</ele>
        <time>2023-11-01T18:39:33Z</time>
      </trkpt>
      <trkpt lat="48.90144" lon="-0.40363">
        <ele>152</ele>
        <time>2023-11-01T18:39:58Z</time>
      </trkpt>
      <trkpt lat="48.90138" lon="-0.40305">
        <ele>147</ele>
        <time>2023-11-01T18:40:49Z</time>
      </trkpt>
      <trkpt lat="48.90133" lon="-0.40279">
        <ele>144</ele>
        <time>2023-11-01T18:41:13Z</time>
      </trkpt>
      <trkpt lat="48.90132" lon="-0.40194">
        <ele>133</ele>
        <time>2023-11-01T18:42:28Z</time>
      </trkpt>
      <trkpt lat="48.90134" lon="-0.40137">
        <ele>129</ele>
        <time>2023-11-01T18:43:18Z</time>
      </trkpt>
      <trkpt lat="48.90129" lon="-0.4011">
        <ele>128</ele>
        <time>2023-11-01T18:43:42Z</time>
      </trkpt>
      <trkpt lat="48.90111" lon="-0.40098">
        <ele>126</ele>
        <time>2023-11-01T18:44:08Z</time>
      </trkpt>
      <trkpt lat="48.90096" lon="-0.40083">
        <ele>124</ele>
        <time>2023-11-01T18:44:32Z</time>
      </trkpt>
      <trkpt lat="48.90052" lon="-0.40029">
        <ele>132</ele>
        <time>2023-11-01T18:45:48Z</time>
      </trkpt>
      <trkpt lat="48.90043" lon="-0.40005">
        <ele>133</ele>
        <time>2023-11-01T18:46:12Z</time>
      </trkpt>
      <trkpt lat="48.90011" lon="-0.39976">
        <ele>131</ele>
        <time>2023-11-01T18:47:02Z</time>
      </trkpt>
      <trkpt lat="48.8998" lon="-0.39943">
        <ele>131</ele>
        <time>2023-11-01T18:47:52Z</time>
      </trkpt>
      <trkpt lat="48.89963" lon="-0.39935">
        <ele>131</ele>
        <time>2023-11-01T18:48:16Z</time>
      </trkpt>
      <trkpt lat="48.89907" lon="-0.39946">
        <ele>129</ele>
        <time>2023-11-01T18:49:31Z</time>
      </trkpt>
      <trkpt lat="48.89852" lon="-0.39945">
        <ele>126</ele>
        <time>2023-11-01T18:50:45Z</time>
      </trkpt>
      <trkpt lat="48.89816" lon="-0.39935">
        <ele>124</ele>
        <time>2023-11-01T18:51:34Z</time>
      </trkpt>
      <trkpt lat="48.898" lon="-0.39921">
        <ele>124</ele>
        <time>2023-11-01T18:51:58Z</time>
      </trkpt>
      <trkpt lat="48.89799" lon="-0.39892">
        <ele>129</ele>
        <time>2023-11-01T18:52:24Z</time>
      </trkpt>
      <trkpt lat="48.89806" lon="-0.39864">
        <ele>133</ele>
        <time>2023-11-01T18:52:50Z</time>
      </trkpt>
      <trkpt lat="48.89815" lon="-0.39809">
        <ele>139</ele>
        <time>2023-11-01T18:53:40Z</time>
      </trkpt>
      <trkpt lat="48.89823" lon="-0.39785">
        <ele>140</ele>
        <time>2023-11-01T18:54:03Z</time>
      </trkpt>
      <trkpt lat="48.8985" lon="-0.39746">
        <ele>143</ele>
        <time>2023-11-01T18:54:53Z</time>
      </trkpt>
      <trkpt lat="48.89871" lon="-0.39699">
        <ele>149</ele>
        <time>2023-11-01T18:55:43Z</time>
      </trkpt>
      <trkpt lat="48.89879" lon="-0.39645">
        <ele>152</ele>
        <time>2023-11-01T18:56:31Z</time>
      </trkpt>
      <trkpt lat="48.89875" lon="-0.39617">
        <ele>154</ele>
        <time>2023-11-01T18:56:57Z</time>
      </trkpt>
      <trkpt lat="48.89892" lon="-0.39605">
        <ele>154</ele>
        <time>2023-11-01T18:57:22Z</time>
      </trkpt>
      <trkpt lat="48.89907" lon="-0.39622">
        <ele>152</ele>
        <time>2023-11-01T18:57:47Z</time>
      </trkpt>
      <trkpt lat="48.89903" lon="-0.39661">
        <ele>152</ele>
        <time>2023-11-01T18:58:21Z</time>
      </trkpt>
      <trkpt lat="48.89903" lon="-0.39633">
        <ele>152</ele>
        <time>2023-11-01T18:58:46Z</time>
      </trkpt>
      <trkpt lat="48.89891" lon="-0.39611">
        <ele>154</ele>
        <time>2023-11-01T18:59:11Z</time>
      </trkpt>
      <trkpt lat="48.89873" lon="-0.39606">
        <ele>155</ele>
        <time>2023-11-01T18:59:35Z</time>
      </trkpt>
      <trkpt lat="48.89859" lon="-0.39554">
        <ele>160</ele>
        <time>2023-11-01T19:00:25Z</time>
      </trkpt>
      <trkpt lat="48.89848" lon="-0.39531">
        <ele>163</ele>
        <time>2023-11-01T19:00:49Z</time>
      </trkpt>
      <trkpt lat="48.89834" lon="-0.3948">
        <ele>166</ele>
        <time>2023-11-01T19:01:38Z</time>
      </trkpt>
      <trkpt lat="48.89813" lon="-0.39433">
        <ele>171</ele>
        <time>2023-11-01T19:02:28Z</time>
      </trkpt>
      <trkpt lat="48.89808" lon="-0.39406">
        <ele>172</ele>
        <time>2023-11-01T19:02:52Z</time>
      </trkpt>
      <trkpt lat="48.89782" lon="-0.3933">
        <ele>177</ele>
        <time>2023-11-01T19:04:08Z</time>
      </trkpt>
      <trkpt lat="48.89757" lon="-0.39193">
        <ele>182</ele>
        <time>2023-11-01T19:06:12Z</time>
      </trkpt>
      <trkpt lat="48.89725" lon="-0.3909">
        <ele>186</ele>
        <time>2023-11-01T19:07:52Z</time>
      </trkpt>
      <trkpt lat="48.89725" lon="-0.39063">
        <ele>187</ele>
        <time>2023-11-01T19:08:16Z</time>
      </trkpt>
      <trkpt lat="48.89738" lon="-0.3901">
        <ele>190</ele>
        <time>2023-11-01T19:09:06Z</time>
      </trkpt>
      <trkpt lat="48.89741" lon="-0.38982">
        <ele>192</ele>
        <time>2023-11-01T19:09:30Z</time>
      </trkpt>
      <trkpt lat="48.89738" lon="-0.38954">
        <ele>193</ele>
        <time>2023-11-01T19:09:55Z</time>
      </trkpt>
      <trkpt lat="48.89717" lon="-0.38875">
        <ele>196</ele>
        <time>2023-11-01T19:11:10Z</time>
      </trkpt>
      <trkpt lat="48.89705" lon="-0.38855">
        <ele>195</ele>
        <time>2023-11-01T19:11:34Z</time>
      </trkpt>
      <trkpt lat="48.8969" lon="-0.38838">
        <ele>194</ele>
        <time>2023-11-01T19:11:59Z</time>
      </trkpt>
      <trkpt lat="48.89656" lon="-0.38817">
        <ele>191</ele>
        <time>2023-11-01T19:12:48Z</time>
      </trkpt>
      <trkpt lat="48.89621" lon="-0.38799">
        <ele>191</ele>
        <time>2023-11-01T19:13:37Z</time>
      </trkpt>
      <trkpt lat="48.89605" lon="-0.38783">
        <ele>191</ele>
        <time>2023-11-01T19:14:03Z</time>
      </trkpt>
      <trkpt lat="48.89592" lon="-0.38764">
        <ele>191</ele>
        <time>2023-11-01T19:14:27Z</time>
      </trkpt>
      <trkpt lat="48.89583" lon="-0.38739">
        <ele>191</ele>
        <time>2023-11-01T19:14:52Z</time>
      </trkpt>
      <trkpt lat="48.89577" lon="-0.38712">
        <ele>192</ele>
        <time>2023-11-01T19:15:17Z</time>
      </trkpt>
      <trkpt lat="48.89571" lon="-0.38658">
        <ele>193</ele>
        <time>2023-11-01T19:16:05Z</time>
      </trkpt>
      <trkpt lat="48.89549" lon="-0.3858">
        <ele>194</ele>
        <time>2023-11-01T19:17:19Z</time>
      </trkpt>
      <trkpt lat="48.89544" lon="-0.38554">
        <ele>194</ele>
        <time>2023-11-01T19:17:43Z</time>
      </trkpt>
      <trkpt lat="48.89526" lon="-0.38331">
        <ele>192</ele>
        <time>2023-11-01T19:21:00Z</time>
      </trkpt>
      <trkpt lat="48.89525" lon="-0.38274">
        <ele>189</ele>
        <time>2023-11-01T19:21:50Z</time>
      </trkpt>
      <trkpt lat="48.89534" lon="-0.38218">
        <ele>187</ele>
        <time>2023-11-01T19:22:41Z</time>
      </trkpt>
      <trkpt lat="48.89519" lon="-0.38169">
        <ele>185</ele>
        <time>2023-11-01T19:23:28Z</time>
      </trkpt>
      <trkpt lat="48.89514" lon="-0.38141">
        <ele>183</ele>
        <time>2023-11-01T19:23:54Z</time>
      </trkpt>
      <trkpt lat="48.89523" lon="-0.38116">
        <ele>182</ele>
        <time>2023-11-01T19:24:19Z</time>
      </trkpt>
      <trkpt lat="48.89536" lon="-0.38097">
        <ele>180</ele>
        <time>2023-11-01T19:24:43Z</time>
      </trkpt>
      <trkpt lat="48.89539" lon="-0.38069">
        <ele>179</ele>
        <time>2023-11-01T19:25:08Z</time>
      </trkpt>
      <trkpt lat="48.89532" lon="-0.38013">
        <ele>177</ele>
        <time>2023-11-01T19:25:58Z</time>
      </trkpt>
      <trkpt lat="48.89532" lon="-0.37985">
        <ele>176</ele>
        <time>2023-11-01T19:26:22Z</time>
      </trkpt>
      <trkpt lat="48.89537" lon="-0.37928">
        <ele>173</ele>
        <time>2023-11-01T19:27:13Z</time>
      </trkpt>
      <trkpt lat="48.89529" lon="-0.37872">
        <ele>171</ele>
        <time>2023-11-01T19:28:03Z</time>
      </trkpt>
      <trkpt lat="48.89516" lon="-0.37819">
        <ele>167</ele>
        <time>2023-11-01T19:28:52Z</time>
      </trkpt>
      <trkpt lat="48.89467" lon="-0.37697">
        <ele>161</ele>
        <time>2023-11-01T19:30:58Z</time>
      </trkpt>
      <trkpt lat="48.89453" lon="-0.37647">
        <ele>158</ele>
        <time>2023-11-01T19:31:46Z</time>
      </trkpt>
      <trkpt lat="48.89441" lon="-0.37625">
        <ele>157</ele>
        <time>2023-11-01T19:32:11Z</time>
      </trkpt>
      <trkpt lat="48.89443" lon="-0.37597">
        <ele>155</ele>
        <time>2023-11-01T19:32:35Z</time>
      </trkpt>
      <trkpt lat="48.89454" lon="-0.37574">
        <ele>155</ele>
        <time>2023-11-01T19:33:00Z</time>
      </trkpt>
      <trkpt lat="48.89451" lon="-0.37547">
        <ele>155</ele>
        <time>2023-11-01T19:33:24Z</time>
      </trkpt>
      <trkpt lat="48.89416" lon="-0.37449">
        <ele>151</ele>
        <time>2023-11-01T19:35:02Z</time>
      </trkpt>
      <trkpt lat="48.89366" lon="-0.37237">
        <ele>149</ele>
        <time>2023-11-01T19:38:20Z</time>
      </trkpt>
      <trkpt lat="48.89358" lon="-0.37211">
        <ele>146</ele>
        <time>2023-11-01T19:38:45Z</time>
      </trkpt>
      <trkpt lat="48.89357" lon="-0.37184">
        <ele>145</ele>
        <time>2023-11-01T19:39:09Z</time>
      </trkpt>
      <trkpt lat="48.89325" lon="-0.37051">
        <ele>134</ele>
        <time>2023-11-01T19:41:13Z</time>
      </trkpt>
      <trkpt lat="48.89316" lon="-0.37075">
        <ele>135</ele>
        <time>2023-11-01T19:41:37Z</time>
      </trkpt>
      <trkpt lat="48.89326" lon="-0.37099">
        <ele>136</ele>
        <time>2023-11-01T19:42:02Z</time>
      </trkpt>
      <trkpt lat="48.89323" lon="-0.37127">
        <ele>137</ele>
        <time>2023-11-01T19:42:27Z</time>
      </trkpt>
      <trkpt lat="48.89309" lon="-0.37144">
        <ele>136</ele>
        <time>2023-11-01T19:42:51Z</time>
      </trkpt>
      <trkpt lat="48.893" lon="-0.37199">
        <ele>137</ele>
        <time>2023-11-01T19:43:41Z</time>
      </trkpt>
      <trkpt lat="48.89288" lon="-0.3722">
        <ele>136</ele>
        <time>2023-11-01T19:44:05Z</time>
      </trkpt>
      <trkpt lat="48.89273" lon="-0.3724">
        <ele>134</ele>
        <time>2023-11-01T19:44:32Z</time>
      </trkpt>
      <trkpt lat="48.89222" lon="-0.37279">
        <ele>135</ele>
        <time>2023-11-01T19:45:48Z</time>
      </trkpt>
      <trkpt lat="48.89215" lon="-0.37304">
        <ele>136</ele>
        <time>2023-11-01T19:46:12Z</time>
      </trkpt>
      <trkpt lat="48.89203" lon="-0.37327">
        <ele>136</ele>
        <time>2023-11-01T19:46:37Z</time>
      </trkpt>
      <trkpt lat="48.89197" lon="-0.37354">
        <ele>136</ele>
        <time>2023-11-01T19:47:02Z</time>
      </trkpt>
      <trkpt lat="48.89192" lon="-0.37466">
        <ele>135</ele>
        <time>2023-11-01T19:48:41Z</time>
      </trkpt>
      <trkpt lat="48.89181" lon="-0.37489">
        <ele>133</ele>
        <time>2023-11-01T19:49:06Z</time>
      </trkpt>
      <trkpt lat="48.89167" lon="-0.37508">
        <ele>131</ele>
        <time>2023-11-01T19:49:31Z</time>
      </trkpt>
      <trkpt lat="48.89149" lon="-0.37513">
        <ele>131</ele>
        <time>2023-11-01T19:49:55Z</time>
      </trkpt>
      <trkpt lat="48.8913" lon="-0.37525">
        <ele>130</ele>
        <time>2023-11-01T19:50:23Z</time>
      </trkpt>
      <trkpt lat="48.89115" lon="-0.37539">
        <ele>130</ele>
        <time>2023-11-01T19:50:46Z</time>
      </trkpt>
      <trkpt lat="48.89087" lon="-0.37575">
        <ele>128</ele>
        <time>2023-11-01T19:51:35Z</time>
      </trkpt>
      <trkpt lat="48.89076" lon="-0.37597">
        <ele>128</ele>
        <time>2023-11-01T19:51:59Z</time>
      </trkpt>
      <trkpt lat="48.89017" lon="-0.37668">
        <ele>124</ele>
        <time>2023-11-01T19:53:40Z</time>
      </trkpt>
      <trkpt lat="48.89001" lon="-0.37721">
        <ele>122</ele>
        <time>2023-11-01T19:54:31Z</time>
      </trkpt>
      <trkpt lat="48.88965" lon="-0.37788">
        <ele>122</ele>
        <time>2023-11-01T19:55:47Z</time>
      </trkpt>
      <trkpt lat="48.88964" lon="-0.37817">
        <ele>122</ele>
        <time>2023-11-01T19:56:12Z</time>
      </trkpt>
      <trkpt lat="48.88958" lon="-0.37844">
        <ele>122</ele>
        <time>2023-11-01T19:56:37Z</time>
      </trkpt>
      <trkpt lat="48.88957" lon="-0.37873">
        <ele>122</ele>
        <time>2023-11-01T19:57:03Z</time>
      </trkpt>
      <trkpt lat="48.88944" lon="-0.37894">
        <ele>120</ele>
        <time>2023-11-01T19:57:28Z</time>
      </trkpt>
      <trkpt lat="48.8893" lon="-0.37948">
        <ele>118</ele>
        <time>2023-11-01T19:58:19Z</time>
      </trkpt>
      <trkpt lat="48.88916" lon="-0.37968">
        <ele>115</ele>
        <time>2023-11-01T19:58:45Z</time>
      </trkpt>
      <trkpt lat="48.88912" lon="-0.37995">
        <ele>115</ele>
        <time>2023-11-01T19:59:09Z</time>
      </trkpt>
      <trkpt lat="48.88911" lon="-0.38027">
        <ele>116</ele>
        <time>2023-11-01T19:59:37Z</time>
      </trkpt>
      <trkpt lat="48.88906" lon="-0.38054">
        <ele>117</ele>
        <time>2023-11-01T20:00:02Z</time>
      </trkpt>
      <trkpt lat="48.88885" lon="-0.38098">
        <ele>118</ele>
        <time>2023-11-01T20:00:50Z</time>
      </trkpt>
      <trkpt lat="48.88877" lon="-0.38123">
        <ele>118</ele>
        <time>2023-11-01T20:01:14Z</time>
      </trkpt>
      <trkpt lat="48.88841" lon="-0.38141">
        <ele>116</ele>
        <time>2023-11-01T20:02:04Z</time>
      </trkpt>
      <trkpt lat="48.88827" lon="-0.3816">
        <ele>116</ele>
        <time>2023-11-01T20:02:30Z</time>
      </trkpt>
      <trkpt lat="48.88816" lon="-0.38181">
        <ele>115</ele>
        <time>2023-11-01T20:02:53Z</time>
      </trkpt>
      <trkpt lat="48.88818" lon="-0.3821">
        <ele>116</ele>
        <time>2023-11-01T20:03:19Z</time>
      </trkpt>
      <trkpt lat="48.8881" lon="-0.38236">
        <ele>115</ele>
        <time>2023-11-01T20:03:44Z</time>
      </trkpt>
      <trkpt lat="48.88819" lon="-0.38262">
        <ele>117</ele>
        <time>2023-11-01T20:04:10Z</time>
      </trkpt>
      <trkpt lat="48.88831" lon="-0.38315">
        <ele>120</ele>
        <time>2023-11-01T20:04:59Z</time>
      </trkpt>
      <trkpt lat="48.88819" lon="-0.38335">
        <ele>119</ele>
        <time>2023-11-01T20:05:23Z</time>
      </trkpt>
      <trkpt lat="48.88815" lon="-0.38362">
        <ele>120</ele>
        <time>2023-11-01T20:05:47Z</time>
      </trkpt>
      <trkpt lat="48.88816" lon="-0.3839">
        <ele>121</ele>
        <time>2023-11-01T20:06:11Z</time>
      </trkpt>
      <trkpt lat="48.88794" lon="-0.38469">
        <ele>119</ele>
        <time>2023-11-01T20:07:27Z</time>
      </trkpt>
      <trkpt lat="48.88783" lon="-0.38493">
        <ele>116</ele>
        <time>2023-11-01T20:07:52Z</time>
      </trkpt>
      <trkpt lat="48.88765" lon="-0.38503">
        <ele>111</ele>
        <time>2023-11-01T20:08:18Z</time>
      </trkpt>
      <trkpt lat="48.88754" lon="-0.38525">
        <ele>110</ele>
        <time>2023-11-01T20:08:42Z</time>
      </trkpt>
      <trkpt lat="48.8872" lon="-0.3855">
        <ele>110</ele>
        <time>2023-11-01T20:09:33Z</time>
      </trkpt>
      <trkpt lat="48.88705" lon="-0.38566">
        <ele>110</ele>
        <time>2023-11-01T20:09:57Z</time>
      </trkpt>
      <trkpt lat="48.88703" lon="-0.38594">
        <ele>111</ele>
        <time>2023-11-01T20:10:22Z</time>
      </trkpt>
      <trkpt lat="48.8871" lon="-0.3862">
        <ele>114</ele>
        <time>2023-11-01T20:10:46Z</time>
      </trkpt>
      <trkpt lat="48.8871" lon="-0.38648">
        <ele>116</ele>
        <time>2023-11-01T20:11:11Z</time>
      </trkpt>
      <trkpt lat="48.88718" lon="-0.38673">
        <ele>119</ele>
        <time>2023-11-01T20:11:35Z</time>
      </trkpt>
      <trkpt lat="48.88703" lon="-0.3869">
        <ele>117</ele>
        <time>2023-11-01T20:12:00Z</time>
      </trkpt>
      <trkpt lat="48.88722" lon="-0.38739">
        <ele>123</ele>
        <time>2023-11-01T20:12:50Z</time>
      </trkpt>
      <trkpt lat="48.88734" lon="-0.38762">
        <ele>126</ele>
        <time>2023-11-01T20:13:16Z</time>
      </trkpt>
      <trkpt lat="48.8875" lon="-0.38812">
        <ele>129</ele>
        <time>2023-11-01T20:14:05Z</time>
      </trkpt>
      <trkpt lat="48.88761" lon="-0.38834">
        <ele>131</ele>
        <time>2023-11-01T20:14:29Z</time>
      </trkpt>
      <trkpt lat="48.88773" lon="-0.38855">
        <ele>134</ele>
        <time>2023-11-01T20:14:54Z</time>
      </trkpt>
      <trkpt lat="48.88788" lon="-0.3887">
        <ele>136</ele>
        <time>2023-11-01T20:15:17Z</time>
      </trkpt>
      <trkpt lat="48.88805" lon="-0.38882">
        <ele>138</ele>
        <time>2023-11-01T20:15:42Z</time>
      </trkpt>
      <trkpt lat="48.88843" lon="-0.38892">
        <ele>143</ele>
        <time>2023-11-01T20:16:34Z</time>
      </trkpt>
      <trkpt lat="48.8886" lon="-0.38885">
        <ele>145</ele>
        <time>2023-11-01T20:16:57Z</time>
      </trkpt>
      <trkpt lat="48.88875" lon="-0.38869">
        <ele>147</ele>
        <time>2023-11-01T20:17:22Z</time>
      </trkpt>
      <trkpt lat="48.88907" lon="-0.38844">
        <ele>151</ele>
        <time>2023-11-01T20:18:10Z</time>
      </trkpt>
      <trkpt lat="48.88944" lon="-0.38833">
        <ele>155</ele>
        <time>2023-11-01T20:19:00Z</time>
      </trkpt>
      <trkpt lat="48.88963" lon="-0.38832">
        <ele>158</ele>
        <time>2023-11-01T20:19:26Z</time>
      </trkpt>
      <trkpt lat="48.88981" lon="-0.38834">
        <ele>160</ele>
        <time>2023-11-01T20:19:50Z</time>
      </trkpt>
      <trkpt lat="48.89016" lon="-0.3885">
        <ele>164</ele>
        <time>2023-11-01T20:20:38Z</time>
      </trkpt>
      <trkpt lat="48.8909" lon="-0.38858">
        <ele>171</ele>
        <time>2023-11-01T20:22:17Z</time>
      </trkpt>
      <trkpt lat="48.89107" lon="-0.38864">
        <ele>172</ele>
        <time>2023-11-01T20:22:41Z</time>
      </trkpt>
      <trkpt lat="48.89123" lon="-0.38878">
        <ele>173</ele>
        <time>2023-11-01T20:23:05Z</time>
      </trkpt>
      <trkpt lat="48.89137" lon="-0.38896">
        <ele>174</ele>
        <time>2023-11-01T20:23:30Z</time>
      </trkpt>
      <trkpt lat="48.89147" lon="-0.3892">
        <ele>175</ele>
        <time>2023-11-01T20:23:55Z</time>
      </trkpt>
      <trkpt lat="48.89149" lon="-0.38949">
        <ele>175</ele>
        <time>2023-11-01T20:24:20Z</time>
      </trkpt>
      <trkpt lat="48.89147" lon="-0.39004">
        <ele>175</ele>
        <time>2023-11-01T20:25:09Z</time>
      </trkpt>
      <trkpt lat="48.89152" lon="-0.39087">
        <ele>176</ele>
        <time>2023-11-01T20:26:22Z</time>
      </trkpt>
      <trkpt lat="48.89156" lon="-0.39114">
        <ele>176</ele>
        <time>2023-11-01T20:26:46Z</time>
      </trkpt>
      <trkpt lat="48.89153" lon="-0.39141">
        <ele>175</ele>
        <time>2023-11-01T20:27:10Z</time>
      </trkpt>
      <trkpt lat="48.89139" lon="-0.3916">
        <ele>175</ele>
        <time>2023-11-01T20:27:35Z</time>
      </trkpt>
      <trkpt lat="48.89158" lon="-0.39156">
        <ele>175</ele>
        <time>2023-11-01T20:28:01Z</time>
      </trkpt>
      <trkpt lat="48.89187" lon="-0.39192">
        <ele>174</ele>
        <time>2023-11-01T20:28:51Z</time>
      </trkpt>
      <trkpt lat="48.89198" lon="-0.39213">
        <ele>172</ele>
        <time>2023-11-01T20:29:14Z</time>
      </trkpt>
      <trkpt lat="48.89226" lon="-0.39251">
        <ele>169</ele>
        <time>2023-11-01T20:30:04Z</time>
      </trkpt>
      <trkpt lat="48.89243" lon="-0.39263">
        <ele>167</ele>
        <time>2023-11-01T20:30:29Z</time>
      </trkpt>
      <trkpt lat="48.89262" lon="-0.39264">
        <ele>166</ele>
        <time>2023-11-01T20:30:55Z</time>
      </trkpt>
      <trkpt lat="48.89299" lon="-0.39273">
        <ele>165</ele>
        <time>2023-11-01T20:31:45Z</time>
      </trkpt>
      <trkpt lat="48.89355" lon="-0.39272">
        <ele>165</ele>
        <time>2023-11-01T20:32:59Z</time>
      </trkpt>
      <trkpt lat="48.89373" lon="-0.39277">
        <ele>166</ele>
        <time>2023-11-01T20:33:24Z</time>
      </trkpt>
      <trkpt lat="48.89365" lon="-0.39301">
        <ele>166</ele>
        <time>2023-11-01T20:33:47Z</time>
      </trkpt>
      <trkpt lat="48.89336" lon="-0.39337">
        <ele>162</ele>
        <time>2023-11-01T20:34:37Z</time>
      </trkpt>
      <trkpt lat="48.8932" lon="-0.39352">
        <ele>162</ele>
        <time>2023-11-01T20:35:03Z</time>
      </trkpt>
      <trkpt lat="48.89292" lon="-0.39388">
        <ele>161</ele>
        <time>2023-11-01T20:35:51Z</time>
      </trkpt>
      <trkpt lat="48.89255" lon="-0.39451">
        <ele>157</ele>
        <time>2023-11-01T20:37:06Z</time>
      </trkpt>
      <trkpt lat="48.89264" lon="-0.39475">
        <ele>158</ele>
        <time>2023-11-01T20:37:30Z</time>
      </trkpt>
      <trkpt lat="48.89279" lon="-0.39491">
        <ele>160</ele>
        <time>2023-11-01T20:37:54Z</time>
      </trkpt>
      <trkpt lat="48.89311" lon="-0.39518">
        <ele>163</ele>
        <time>2023-11-01T20:38:43Z</time>
      </trkpt>
      <trkpt lat="48.89357" lon="-0.39565">
        <ele>169</ele>
        <time>2023-11-01T20:39:57Z</time>
      </trkpt>
      <trkpt lat="48.89372" lon="-0.39581">
        <ele>171</ele>
        <time>2023-11-01T20:40:21Z</time>
      </trkpt>
      <trkpt lat="48.89385" lon="-0.396">
        <ele>173</ele>
        <time>2023-11-01T20:40:46Z</time>
      </trkpt>
      <trkpt lat="48.89343" lon="-0.39694">
        <ele>169</ele>
        <time>2023-11-01T20:42:25Z</time>
      </trkpt>
      <trkpt lat="48.89336" lon="-0.39721">
        <ele>169</ele>
        <time>2023-11-01T20:42:51Z</time>
      </trkpt>
      <trkpt lat="48.8931" lon="-0.39795">
        <ele>165</ele>
        <time>2023-11-01T20:44:04Z</time>
      </trkpt>
      <trkpt lat="48.89302" lon="-0.39822">
        <ele>164</ele>
        <time>2023-11-01T20:44:30Z</time>
      </trkpt>
      <trkpt lat="48.8928" lon="-0.39931">
        <ele>158</ele>
        <time>2023-11-01T20:46:10Z</time>
      </trkpt>
      <trkpt lat="48.89272" lon="-0.39957">
        <ele>156</ele>
        <time>2023-11-01T20:46:36Z</time>
      </trkpt>
      <trkpt lat="48.89236" lon="-0.40023">
        <ele>149</ele>
        <time>2023-11-01T20:47:51Z</time>
      </trkpt>
      <trkpt lat="48.89207" lon="-0.40058">
        <ele>145</ele>
        <time>2023-11-01T20:48:40Z</time>
      </trkpt>
      <trkpt lat="48.8917" lon="-0.40124">
        <ele>139</ele>
        <time>2023-11-01T20:49:56Z</time>
      </trkpt>
      <trkpt lat="48.89162" lon="-0.40149">
        <ele>136</ele>
        <time>2023-11-01T20:50:21Z</time>
      </trkpt>
      <trkpt lat="48.89142" lon="-0.40196">
        <ele>133</ele>
        <time>2023-11-01T20:51:10Z</time>
      </trkpt>
      <trkpt lat="48.89128" lon="-0.40248">
        <ele>130</ele>
        <time>2023-11-01T20:51:59Z</time>
      </trkpt>
      <trkpt lat="48.89116" lon="-0.40272">
        <ele>129</ele>
        <time>2023-11-01T20:52:26Z</time>
      </trkpt>
      <trkpt lat="48.89095" lon="-0.40352">
        <ele>129</ele>
        <time>2023-11-01T20:53:41Z</time>
      </trkpt>
      <trkpt lat="48.89114" lon="-0.40349">
        <ele>125</ele>
        <time>2023-11-01T20:54:07Z</time>
      </trkpt>
      <trkpt lat="48.89129" lon="-0.40333">
        <ele>123</ele>
        <time>2023-11-01T20:54:31Z</time>
      </trkpt>
      <trkpt lat="48.89146" lon="-0.40336">
        <ele>120</ele>
        <time>2023-11-01T20:54:54Z</time>
      </trkpt>
      <trkpt lat="48.89148" lon="-0.40363">
        <ele>116</ele>
        <time>2023-11-01T20:55:18Z</time>
      </trkpt>
      <trkpt lat="48.89138" lon="-0.40419">
        <ele>113</ele>
        <time>2023-11-01T20:56:09Z</time>
      </trkpt>
      <trkpt lat="48.89137" lon="-0.40447">
        <ele>111</ele>
        <time>2023-11-01T20:56:33Z</time>
      </trkpt>
      <trkpt lat="48.89131" lon="-0.40474">
        <ele>111</ele>
        <time>2023-11-01T20:56:58Z</time>
      </trkpt>
      <trkpt lat="48.89135" lon="-0.40529">
        <ele>106</ele>
        <time>2023-11-01T20:57:47Z</time>
      </trkpt>
      <trkpt lat="48.89126" lon="-0.40613">
        <ele>104</ele>
        <time>2023-11-01T20:59:02Z</time>
      </trkpt>
      <trkpt lat="48.89125" lon="-0.40643">
        <ele>102</ele>
        <time>2023-11-01T20:59:28Z</time>
      </trkpt>
      <trkpt lat="48.89127" lon="-0.40671">
        <ele>100</ele>
        <time>2023-11-01T20:59:53Z</time>
      </trkpt>
      <trkpt lat="48.89123" lon="-0.40756">
        <ele>98</ele>
        <time>2023-11-01T21:01:07Z</time>
      </trkpt>
      <trkpt lat="48.89117" lon="-0.40783">
        <ele>100</ele>
        <time>2023-11-01T21:01:32Z</time>
      </trkpt>
      <trkpt lat="48.89118" lon="-0.40811">
        <ele>98</ele>
        <time>2023-11-01T21:01:57Z</time>
      </trkpt>
      <trkpt lat="48.89131" lon="-0.40924">
        <ele>90</ele>
        <time>2023-11-01T21:03:38Z</time>
      </trkpt>
      <trkpt lat="48.8913" lon="-0.40953">
        <ele>89</ele>
        <time>2023-11-01T21:04:03Z</time>
      </trkpt>
      <trkpt lat="48.8914" lon="-0.41006">
        <ele>83</ele>
        <time>2023-11-01T21:04:51Z</time>
      </trkpt>
      <trkpt lat="48.89141" lon="-0.41034">
        <ele>81</ele>
        <time>2023-11-01T21:05:16Z</time>
      </trkpt>
      <trkpt lat="48.89146" lon="-0.41062">
        <ele>78</ele>
        <time>2023-11-01T21:05:42Z</time>
      </trkpt>
      <trkpt lat="48.89146" lon="-0.4109">
        <ele>76</ele>
        <time>2023-11-01T21:06:06Z</time>
      </trkpt>
      <trkpt lat="48.89135" lon="-0.41145">
        <ele>76</ele>
        <time>2023-11-01T21:06:57Z</time>
      </trkpt>
      <trkpt lat="48.89127" lon="-0.41172">
        <ele>75</ele>
        <time>2023-11-01T21:07:23Z</time>
      </trkpt>
      <trkpt lat="48.89126" lon="-0.412">
        <ele>75</ele>
        <time>2023-11-01T21:07:47Z</time>
      </trkpt>
      <trkpt lat="48.89117" lon="-0.41225">
        <ele>75</ele>
        <time>2023-11-01T21:08:12Z</time>
      </trkpt>
      <trkpt lat="48.89099" lon="-0.41303">
        <ele>70</ele>
        <time>2023-11-01T21:09:25Z</time>
      </trkpt>
      <trkpt lat="48.89074" lon="-0.41381">
        <ele>61</ele>
        <time>2023-11-01T21:10:41Z</time>
      </trkpt>
      <trkpt lat="48.8906" lon="-0.41398">
        <ele>60</ele>
        <time>2023-11-01T21:11:05Z</time>
      </trkpt>
      <trkpt lat="48.89049" lon="-0.41421">
        <ele>56</ele>
        <time>2023-11-01T21:11:30Z</time>
      </trkpt>
      <trkpt lat="48.89053" lon="-0.41447">
        <ele>55</ele>
        <time>2023-11-01T21:11:53Z</time>
      </trkpt>
      <trkpt lat="48.89071" lon="-0.41444">
        <ele>54</ele>
        <time>2023-11-01T21:12:17Z</time>
      </trkpt>
      <trkpt lat="48.89089" lon="-0.41449">
        <ele>55</ele>
        <time>2023-11-01T21:12:42Z</time>
      </trkpt>
      <trkpt lat="48.89107" lon="-0.4144">
        <ele>60</ele>
        <time>2023-11-01T21:13:07Z</time>
      </trkpt>
      <trkpt lat="48.89123" lon="-0.4139">
        <ele>67</ele>
        <time>2023-11-01T21:13:56Z</time>
      </trkpt>
      <trkpt lat="48.89143" lon="-0.41342">
        <ele>74</ele>
        <time>2023-11-01T21:14:46Z</time>
      </trkpt>
      <trkpt lat="48.89157" lon="-0.41358">
        <ele>76</ele>
        <time>2023-11-01T21:15:09Z</time>
      </trkpt>
      <trkpt lat="48.89167" lon="-0.41382">
        <ele>78</ele>
        <time>2023-11-01T21:15:34Z</time>
      </trkpt>
      <trkpt lat="48.8917" lon="-0.4141">
        <ele>78</ele>
        <time>2023-11-01T21:15:59Z</time>
      </trkpt>
      <trkpt lat="48.89167" lon="-0.41437">
        <ele>76</ele>
        <time>2023-11-01T21:16:23Z</time>
      </trkpt>
      <trkpt lat="48.89171" lon="-0.41465">
        <ele>76</ele>
        <time>2023-11-01T21:16:48Z</time>
      </trkpt>
      <trkpt lat="48.89178" lon="-0.41491">
        <ele>77</ele>
        <time>2023-11-01T21:17:13Z</time>
      </trkpt>
      <trkpt lat="48.89199" lon="-0.41537">
        <ele>79</ele>
        <time>2023-11-01T21:18:02Z</time>
      </trkpt>
      <trkpt lat="48.89228" lon="-0.41571">
        <ele>86</ele>
        <time>2023-11-01T21:18:51Z</time>
      </trkpt>
      <trkpt lat="48.89253" lon="-0.41613">
        <ele>90</ele>
        <time>2023-11-01T21:19:40Z</time>
      </trkpt>
      <trkpt lat="48.89282" lon="-0.41644">
        <ele>98</ele>
        <time>2023-11-01T21:20:28Z</time>
      </trkpt>
      <trkpt lat="48.89318" lon="-0.41658">
        <ele>111</ele>
        <time>2023-11-01T21:21:17Z</time>
      </trkpt>
      <trkpt lat="48.89331" lon="-0.41679">
        <ele>116</ele>
        <time>2023-11-01T21:21:43Z</time>
      </trkpt>
      <trkpt lat="48.89341" lon="-0.41732">
        <ele>116</ele>
        <time>2023-11-01T21:22:31Z</time>
      </trkpt>
      <trkpt lat="48.89347" lon="-0.41788">
        <ele>116</ele>
        <time>2023-11-01T21:23:21Z</time>
      </trkpt>
      <trkpt lat="48.8935" lon="-0.41844">
        <ele>117</ele>
        <time>2023-11-01T21:24:10Z</time>
      </trkpt>
      <trkpt lat="48.89349" lon="-0.41901">
        <ele>120</ele>
        <time>2023-11-01T21:25:00Z</time>
      </trkpt>
    </trkseg>
  </trk>
</gpx>